sensor_id;sensor_type;location;lat;lon;timestamp;temperature;humidity
18882;DHT22;9573;50.948;11.600;2022-11-27T05:22:47;0.70;99.90
18882;DHT22;9573;50.948;11.600;2022-11-27T05:25:15;0.80;99.90
18882;DHT22;9573;50.948;11.600;2022-11-27T05:27:42;0.80;99.90
18882;DHT22;9573;50.948;11.600;2022-11-27T05:30:09;0.90;99.90
18882;DHT22;9573;50.948;11.600;2022-11-27T05:32:37;1.00;99.90
18882;DHT22;9573;50.948;11.600;2022-11-27T05:35:05;1.10;99.90
18882;DHT22;9573;50.948;11.600;2022-11-27T05:37:32;1.20;99.90
18882;DHT22;9573;50.948;11.600;2022-11-27T05:40:00;1.30;99.90
18882;DHT22;9573;50.948;11.600;2022-11-27T05:42:28;1.40;99.90
18882;DHT22;9573;50.948;11.600;2022-11-27T05:44:55;1.40;99.90
18882;DHT22;9573;50.948;11.600;2022-11-27T05:47:22;1.40;99.90
18882;DHT22;9573;50.948;11.600;2022-11-27T05:49:49;1.40;99.90
18882;DHT22;9573;50.948;11.600;2022-11-27T05:52:16;1.40;99.90
18882;DHT22;9573;50.948;11.600;2022-11-27T05:54:43;1.50;99.90
18882;DHT22;9573;50.948;11.600;2022-11-27T05:57:12;1.50;99.90
18882;DHT22;9573;50.948;11.600;2022-11-27T05:59:39;1.50;99.90
18882;DHT22;9573;50.948;11.600;2022-11-27T06:02:06;1.50;99.90
18882;DHT22;9573;50.948;11.600;2022-11-27T06:04:33;1.50;99.90
18882;DHT22;9573;50.948;11.600;2022-11-27T06:07:01;1.50;99.90
18882;DHT22;9573;50.948;11.600;2022-11-27T06:09:28;1.50;99.90
18882;DHT22;9573;50.948;11.600;2022-11-27T06:11:55;1.40;99.90
18882;DHT22;9573;50.948;11.600;2022-11-27T06:14:24;1.40;99.90
18882;DHT22;9573;50.948;11.600;2022-11-27T06:16:51;1.40;99.90
18882;DHT22;9573;50.948;11.600;2022-11-27T06:19:18;1.40;99.90
18882;DHT22;9573;50.948;11.600;2022-11-27T06:21:45;1.30;99.90
18882;DHT22;9573;50.948;11.600;2022-11-27T06:24:12;1.30;99.90
18882;DHT22;9573;50.948;11.600;2022-11-27T06:26:39;1.30;99.90
18882;DHT22;9573;50.948;11.600;2022-11-27T06:29:07;1.40;99.90
18882;DHT22;9573;50.948;11.600;2022-11-27T06:31:36;1.30;99.90
18882;DHT22;9573;50.948;11.600;2022-11-27T06:34:05;1.40;99.90
18882;DHT22;9573;50.948;11.600;2022-11-27T06:36:34;1.40;99.90
18882;DHT22;9573;50.948;11.600;2022-11-27T06:39:04;1.40;99.90
18882;DHT22;9573;50.948;11.600;2022-11-27T06:41:32;1.40;99.90
18882;DHT22;9573;50.948;11.600;2022-11-27T06:44:00;1.40;99.90
18882;DHT22;9573;50.948;11.600;2022-11-27T06:46:30;1.40;99.90
18882;DHT22;9573;50.948;11.600;2022-11-27T06:48:59;1.40;99.90
18882;DHT22;9573;50.948;11.600;2022-11-27T06:51:29;1.40;99.90
18882;DHT22;9573;50.948;11.600;2022-11-27T06:54:00;1.40;99.90
18882;DHT22;9573;50.948;11.600;2022-11-27T06:56:29;1.40;99.90
18882;DHT22;9573;50.948;11.600;2022-11-27T06:58:58;1.40;99.90
18882;DHT22;9573;50.948;11.600;2022-11-27T07:01:27;1.70;99.90
18882;DHT22;9573;50.948;11.600;2022-11-27T07:03:56;1.30;99.90
18882;DHT22;9573;50.948;11.600;2022-11-27T07:06:25;1.30;99.90
18882;DHT22;9573;50.948;11.600;2022-11-27T07:08:53;1.30;99.90
18882;DHT22;9573;50.948;11.600;2022-11-27T07:11:23;1.30;99.90
18882;DHT22;9573;50.948;11.600;2022-11-27T07:13:54;1.30;99.90
18882;DHT22;9573;50.948;11.600;2022-11-27T07:16:22;1.30;99.90
18882;DHT22;9573;50.948;11.600;2022-11-27T07:18:51;1.30;99.90
18882;DHT22;9573;50.948;11.600;2022-11-27T07:21:19;1.30;99.90
18882;DHT22;9573;50.948;11.600;2022-11-27T07:23:49;1.30;99.90
18882;DHT22;9573;50.948;11.600;2022-11-27T07:26:18;1.30;99.90
18882;DHT22;9573;50.948;11.600;2022-11-27T07:28:46;1.40;99.90
18882;DHT22;9573;50.948;11.600;2022-11-27T07:31:16;1.30;99.90
18882;DHT22;9573;50.948;11.600;2022-11-27T07:33:45;1.40;99.90
18882;DHT22;9573;50.948;11.600;2022-11-27T07:36:14;1.40;99.90
18882;DHT22;9573;50.948;11.600;2022-11-27T07:38:42;1.50;99.90
18882;DHT22;9573;50.948;11.600;2022-11-27T07:41:12;1.50;99.90
18882;DHT22;9573;50.948;11.600;2022-11-27T07:43:41;1.60;99.90
18882;DHT22;9573;50.948;11.600;2022-11-27T07:46:11;1.60;99.90
18882;DHT22;9573;50.948;11.600;2022-11-27T07:48:39;1.70;99.90
18882;DHT22;9573;50.948;11.600;2022-11-27T07:51:07;1.70;99.90
18882;DHT22;9573;50.948;11.600;2022-11-27T07:53:37;1.60;99.90
18882;DHT22;9573;50.948;11.600;2022-11-27T07:56:04;1.70;99.90
18882;DHT22;9573;50.948;11.600;2022-11-27T07:58:34;1.80;99.90
18882;DHT22;9573;50.948;11.600;2022-11-27T08:01:05;1.80;99.90
18882;DHT22;9573;50.948;11.600;2022-11-27T08:03:33;1.90;99.90
18882;DHT22;9573;50.948;11.600;2022-11-27T08:06:00;2.10;99.90
18882;DHT22;9573;50.948;11.600;2022-11-27T08:08:27;2.10;99.90
18882;DHT22;9573;50.948;11.600;2022-11-27T08:10:54;2.10;99.90
18882;DHT22;9573;50.948;11.600;2022-11-27T08:13:21;2.10;99.90
18882;DHT22;9573;50.948;11.600;2022-11-27T08:15:50;1.90;99.90
18882;DHT22;9573;50.948;11.600;2022-11-27T08:18:17;1.90;99.90
18882;DHT22;9573;50.948;11.600;2022-11-27T08:20:44;1.90;99.90
18882;DHT22;9573;50.948;11.600;2022-11-27T08:23:11;1.90;99.90
18882;DHT22;9573;50.948;11.600;2022-11-27T08:25:38;2.10;99.90
18882;DHT22;9573;50.948;11.600;2022-11-27T08:28:05;2.20;99.90
18882;DHT22;9573;50.948;11.600;2022-11-27T08:30:33;2.50;99.90
18882;DHT22;9573;50.948;11.600;2022-11-27T08:33:01;2.70;99.90
18882;DHT22;9573;50.948;11.600;2022-11-27T08:35:28;3.00;99.90
18882;DHT22;9573;50.948;11.600;2022-11-27T08:37:55;3.20;99.90
18882;DHT22;9573;50.948;11.600;2022-11-27T08:40:22;3.20;99.90
18882;DHT22;9573;50.948;11.600;2022-11-27T08:42:50;3.40;99.90
18882;DHT22;9573;50.948;11.600;2022-11-27T08:45:17;3.40;99.90
18882;DHT22;9573;50.948;11.600;2022-11-27T08:47:44;3.50;99.90
18882;DHT22;9573;50.948;11.600;2022-11-27T08:50:12;3.60;99.90
18882;DHT22;9573;50.948;11.600;2022-11-27T08:52:39;3.80;99.90
18882;DHT22;9573;50.948;11.600;2022-11-27T08:55:07;3.90;99.90
18882;DHT22;9573;50.948;11.600;2022-11-27T08:57:35;4.00;99.90
18882;DHT22;9573;50.948;11.600;2022-11-27T09:00:03;4.00;99.90
18882;DHT22;9573;50.948;11.600;2022-11-27T09:02:32;4.10;99.90
18882;DHT22;9573;50.948;11.600;2022-11-27T09:04:59;4.30;99.90
18882;DHT22;9573;50.948;11.600;2022-11-27T09:07:28;4.70;99.90
18882;DHT22;9573;50.948;11.600;2022-11-27T09:09:56;5.20;99.90
18882;DHT22;9573;50.948;11.600;2022-11-27T09:12:23;5.60;99.90
18882;DHT22;9573;50.948;11.600;2022-11-27T09:14:50;5.90;99.90
18882;DHT22;9573;50.948;11.600;2022-11-27T09:17:17;6.50;99.90
18882;DHT22;9573;50.948;11.600;2022-11-27T09:19:45;6.80;99.90
18882;DHT22;9573;50.948;11.600;2022-11-27T09:22:12;7.60;99.90
18882;DHT22;9573;50.948;11.600;2022-11-27T09:24:46;7.50;99.90
18882;DHT22;9573;50.948;11.600;2022-11-27T09:27:13;7.70;99.90
18882;DHT22;9573;50.948;11.600;2022-11-27T09:29:41;8.10;99.90
18882;DHT22;9573;50.948;11.600;2022-11-27T09:32:08;8.70;99.90
18882;DHT22;9573;50.948;11.600;2022-11-27T09:34:35;9.00;99.90
18882;DHT22;9573;50.948;11.600;2022-11-27T09:37:03;9.40;99.90
18882;DHT22;9573;50.948;11.600;2022-11-27T09:39:30;9.10;99.90
18882;DHT22;9573;50.948;11.600;2022-11-27T09:42:02;8.80;99.90
18882;DHT22;9573;50.948;11.600;2022-11-27T09:44:33;8.60;99.90
18882;DHT22;9573;50.948;11.600;2022-11-27T09:47:11;8.60;99.90
18882;DHT22;9573;50.948;11.600;2022-11-27T09:49:44;8.60;99.90
18882;DHT22;9573;50.948;11.600;2022-11-27T09:52:19;9.00;99.90
18882;DHT22;9573;50.948;11.600;2022-11-27T09:54:54;10.00;99.90
18882;DHT22;9573;50.948;11.600;2022-11-27T09:57:31;11.30;99.90
18882;DHT22;9573;50.948;11.600;2022-11-27T10:00:03;12.50;99.90
18882;DHT22;9573;50.948;11.600;2022-11-27T10:02:33;13.30;99.90
18882;DHT22;9573;50.948;11.600;2022-11-27T10:05:06;14.20;99.90
18882;DHT22;9573;50.948;11.600;2022-11-27T10:07:49;14.60;99.90
18882;DHT22;9573;50.948;11.600;2022-11-27T10:10:35;14.00;99.90
18882;DHT22;9573;50.948;11.600;2022-11-27T10:16:04;15.10;99.90
18882;DHT22;9573;50.948;11.600;2022-11-27T10:18:39;15.80;99.90
18882;DHT22;9573;50.948;11.600;2022-11-27T10:21:14;16.70;99.90
18882;DHT22;9573;50.948;11.600;2022-11-27T10:23:48;17.50;99.90
18882;DHT22;9573;50.948;11.600;2022-11-27T10:26:26;17.70;99.90
18882;DHT22;9573;50.948;11.600;2022-11-27T10:29:01;17.40;99.90
18882;DHT22;9573;50.948;11.600;2022-11-27T10:31:35;17.40;99.90
18882;DHT22;9573;50.948;11.600;2022-11-27T10:34:24;17.30;99.90
18882;DHT22;9573;50.948;11.600;2022-11-27T10:36:54;16.50;99.50
18882;DHT22;9573;50.948;11.600;2022-11-27T10:39:29;16.20;99.90
18882;DHT22;9573;50.948;11.600;2022-11-27T10:42:02;15.80;99.90
18882;DHT22;9573;50.948;11.600;2022-11-27T10:44:38;15.90;99.50
18882;DHT22;9573;50.948;11.600;2022-11-27T10:47:09;15.60;99.10
18882;DHT22;9573;50.948;11.600;2022-11-27T10:49:39;15.30;99.60
18882;DHT22;9573;50.948;11.600;2022-11-27T10:52:11;15.10;99.90
18882;DHT22;9573;50.948;11.600;2022-11-27T10:54:40;15.10;99.90
18882;DHT22;9573;50.948;11.600;2022-11-27T10:57:23;15.80;99.90
18882;DHT22;9573;50.948;11.600;2022-11-27T11:00:03;17.00;99.50
18882;DHT22;9573;50.948;11.600;2022-11-27T11:02:37;18.00;97.20
18882;DHT22;9573;50.948;11.600;2022-11-27T11:05:26;18.70;95.20
18882;DHT22;9573;50.948;11.600;2022-11-27T11:07:57;19.20;94.20
18882;DHT22;9573;50.948;11.600;2022-11-27T11:10:28;19.60;93.60
18882;DHT22;9573;50.948;11.600;2022-11-27T11:13:15;20.00;93.20
18882;DHT22;9573;50.948;11.600;2022-11-27T11:15:54;20.30;92.10
18882;DHT22;9573;50.948;11.600;2022-11-27T11:18:24;20.60;91.30
18882;DHT22;9573;50.948;11.600;2022-11-27T11:20:54;20.80;90.60
18882;DHT22;9573;50.948;11.600;2022-11-27T11:23:26;21.00;89.60
18882;DHT22;9573;50.948;11.600;2022-11-27T11:26:01;21.10;88.30
18882;DHT22;9573;50.948;11.600;2022-11-27T11:28:34;21.20;88.10
18882;DHT22;9573;50.948;11.600;2022-11-27T11:31:14;21.30;85.40
18882;DHT22;9573;50.948;11.600;2022-11-27T11:33:48;21.10;86.10
18882;DHT22;9573;50.948;11.600;2022-11-27T11:36:18;21.00;84.20
18882;DHT22;9573;50.948;11.600;2022-11-27T11:38:46;20.60;86.00
18882;DHT22;9573;50.948;11.600;2022-11-27T11:41:14;20.50;86.60
18882;DHT22;9573;50.948;11.600;2022-11-27T11:43:56;20.50;86.70
18882;DHT22;9573;50.948;11.600;2022-11-27T11:46:32;20.60;85.20
18882;DHT22;9573;50.948;11.600;2022-11-27T11:49:04;20.30;84.70
18882;DHT22;9573;50.948;11.600;2022-11-27T11:51:46;19.90;85.20
18882;DHT22;9573;50.948;11.600;2022-11-27T11:54:48;19.40;86.90
18882;DHT22;9573;50.948;11.600;2022-11-27T11:57:48;18.90;88.30
18882;DHT22;9573;50.948;11.600;2022-11-27T12:00:28;18.60;89.10
18882;DHT22;9573;50.948;11.600;2022-11-27T12:03:36;18.40;90.10
18882;DHT22;9573;50.948;11.600;2022-11-27T12:06:38;18.30;90.10
18882;DHT22;9573;50.948;11.600;2022-11-27T12:09:24;18.20;90.20
18882;DHT22;9573;50.948;11.600;2022-11-27T12:11:59;16.90;90.40
18882;DHT22;9573;50.948;11.600;2022-11-27T12:14:41;17.60;91.30
18882;DHT22;9573;50.948;11.600;2022-11-27T12:17:33;17.30;91.80
18882;DHT22;9573;50.948;11.600;2022-11-27T12:20:27;16.60;92.50
18882;DHT22;9573;50.948;11.600;2022-11-27T12:23:23;15.90;93.90
18882;DHT22;9573;50.948;11.600;2022-11-27T12:26:16;14.70;95.40
18882;DHT22;9573;50.948;11.600;2022-11-27T12:29:06;13.60;97.50
18882;DHT22;9573;50.948;11.600;2022-11-27T12:32:10;12.90;99.20
18882;DHT22;9573;50.948;11.600;2022-11-27T12:34:56;12.20;99.90
18882;DHT22;9573;50.948;11.600;2022-11-27T12:37:40;11.80;99.90
18882;DHT22;9573;50.948;11.600;2022-11-27T12:40:22;11.50;99.90
18882;DHT22;9573;50.948;11.600;2022-11-27T12:43:01;11.20;99.90
18882;DHT22;9573;50.948;11.600;2022-11-27T12:45:38;11.00;99.90
18882;DHT22;9573;50.948;11.600;2022-11-27T12:48:13;10.80;99.90
18882;DHT22;9573;50.948;11.600;2022-11-27T12:50:46;10.80;99.90
18882;DHT22;9573;50.948;11.600;2022-11-27T12:53:20;10.70;99.90
18882;DHT22;9573;50.948;11.600;2022-11-27T12:56:00;10.50;99.90
18882;DHT22;9573;50.948;11.600;2022-11-27T12:58:37;10.50;99.90
18882;DHT22;9573;50.948;11.600;2022-11-27T13:01:09;10.40;99.90
18882;DHT22;9573;50.948;11.600;2022-11-27T13:03:45;10.30;99.90
18882;DHT22;9573;50.948;11.600;2022-11-27T13:06:21;10.20;99.90
18882;DHT22;9573;50.948;11.600;2022-11-27T13:08:55;10.20;99.90
18882;DHT22;9573;50.948;11.600;2022-11-27T13:11:25;10.20;99.90
18882;DHT22;9573;50.948;11.600;2022-11-27T13:14:02;10.20;99.90
18882;DHT22;9573;50.948;11.600;2022-11-27T13:16:34;10.30;99.90
18882;DHT22;9573;50.948;11.600;2022-11-27T13:19:09;10.50;99.90
18882;DHT22;9573;50.948;11.600;2022-11-27T13:21:40;10.70;99.90
18882;DHT22;9573;50.948;11.600;2022-11-27T13:24:11;10.80;99.90
18882;DHT22;9573;50.948;11.600;2022-11-27T13:26:42;10.80;99.90
18882;DHT22;9573;50.948;11.600;2022-11-27T13:29:17;10.60;99.90
18882;DHT22;9573;50.948;11.600;2022-11-27T13:31:54;10.90;99.90
18882;DHT22;9573;50.948;11.600;2022-11-27T13:34:24;11.50;99.90
18882;DHT22;9573;50.948;11.600;2022-11-27T13:36:57;11.60;99.90
18882;DHT22;9573;50.948;11.600;2022-11-27T13:39:29;11.40;99.90
18882;DHT22;9573;50.948;11.600;2022-11-27T13:42:02;11.00;99.90
18882;DHT22;9573;50.948;11.600;2022-11-27T13:44:33;10.70;99.90
18882;DHT22;9573;50.948;11.600;2022-11-27T13:47:06;10.50;99.90
18882;DHT22;9573;50.948;11.600;2022-11-27T13:49:35;10.20;99.90
18882;DHT22;9573;50.948;11.600;2022-11-27T13:52:08;10.10;99.90
18882;DHT22;9573;50.948;11.600;2022-11-27T13:54:50;9.90;99.90
18882;DHT22;9573;50.948;11.600;2022-11-27T13:57:19;9.70;99.90
18882;DHT22;9573;50.948;11.600;2022-11-27T13:59:55;9.60;99.90
18882;DHT22;9573;50.948;11.600;2022-11-27T14:02:24;9.50;99.90
18882;DHT22;9573;50.948;11.600;2022-11-27T14:04:52;9.50;99.90
18882;DHT22;9573;50.948;11.600;2022-11-27T14:07:19;9.40;99.90
18882;DHT22;9573;50.948;11.600;2022-11-27T14:09:51;9.40;99.90
18882;DHT22;9573;50.948;11.600;2022-11-27T14:12:23;9.30;99.90
18882;DHT22;9573;50.948;11.600;2022-11-27T14:15:03;9.30;99.90
18882;DHT22;9573;50.948;11.600;2022-11-27T14:17:35;9.20;99.90
18882;DHT22;9573;50.948;11.600;2022-11-27T14:20:17;9.20;99.90
18882;DHT22;9573;50.948;11.600;2022-11-27T14:22:48;9.10;99.90
18882;DHT22;9573;50.948;11.600;2022-11-27T14:25:20;9.00;99.90
18882;DHT22;9573;50.948;11.600;2022-11-27T14:27:56;9.00;99.90
18882;DHT22;9573;50.948;11.600;2022-11-27T14:30:30;8.90;99.90
18882;DHT22;9573;50.948;11.600;2022-11-27T14:33:00;8.90;99.90
18882;DHT22;9573;50.948;11.600;2022-11-27T14:35:28;8.40;99.90
18882;DHT22;9573;50.948;11.600;2022-11-27T14:38:07;8.70;99.90
18882;DHT22;9573;50.948;11.600;2022-11-27T14:40:37;8.70;99.90
18882;DHT22;9573;50.948;11.600;2022-11-27T14:43:08;8.60;99.90
18882;DHT22;9573;50.948;11.600;2022-11-27T14:45:36;8.60;99.90
18882;DHT22;9573;50.948;11.600;2022-11-27T14:48:04;8.60;99.90
18882;DHT22;9573;50.948;11.600;2022-11-27T14:50:31;8.50;99.90
18882;DHT22;9573;50.948;11.600;2022-11-27T14:52:59;8.50;99.90
18882;DHT22;9573;50.948;11.600;2022-11-27T14:55:26;8.40;99.90
18882;DHT22;9573;50.948;11.600;2022-11-27T14:57:56;8.40;99.90
18882;DHT22;9573;50.948;11.600;2022-11-27T15:00:24;8.30;99.90
18882;DHT22;9573;50.948;11.600;2022-11-27T15:02:53;8.20;99.90
18882;DHT22;9573;50.948;11.600;2022-11-27T15:05:23;8.20;99.90
18882;DHT22;9573;50.948;11.600;2022-11-27T15:07:56;8.20;99.90
18882;DHT22;9573;50.948;11.600;2022-11-27T15:10:30;8.10;99.90
18882;DHT22;9573;50.948;11.600;2022-11-27T15:13:02;8.10;99.90
18882;DHT22;9573;50.948;11.600;2022-11-27T15:15:35;8.10;99.90
18882;DHT22;9573;50.948;11.600;2022-11-27T15:18:06;8.00;99.90
18882;DHT22;9573;50.948;11.600;2022-11-27T15:20:37;8.00;99.90
18882;DHT22;9573;50.948;11.600;2022-11-27T15:23:15;8.00;99.90
18882;DHT22;9573;50.948;11.600;2022-11-27T15:25:45;8.00;99.90
18882;DHT22;9573;50.948;11.600;2022-11-27T15:28:33;8.00;99.90
18882;DHT22;9573;50.948;11.600;2022-11-27T15:31:18;7.90;99.90
18882;DHT22;9573;50.948;11.600;2022-11-27T15:33:58;7.90;99.90
18882;DHT22;9573;50.948;11.600;2022-11-27T15:36:33;7.90;99.90
18882;DHT22;9573;50.948;11.600;2022-11-27T15:39:18;7.80;99.90
18882;DHT22;9573;50.948;11.600;2022-11-27T15:41:52;7.80;99.90
18882;DHT22;9573;50.948;11.600;2022-11-27T15:44:23;7.80;99.90
18882;DHT22;9573;50.948;11.600;2022-11-27T15:46:54;7.80;99.90
18882;DHT22;9573;50.948;11.600;2022-11-27T15:49:23;7.80;99.90
18882;DHT22;9573;50.948;11.600;2022-11-27T15:51:50;7.80;99.90
18882;DHT22;9573;50.948;11.600;2022-11-27T15:54:21;7.80;99.90
18882;DHT22;9573;50.948;11.600;2022-11-27T15:56:48;7.80;99.90
18882;DHT22;9573;50.948;11.600;2022-11-27T15:59:16;7.70;99.90
18882;DHT22;9573;50.948;11.600;2022-11-27T16:01:46;7.70;99.90
18882;DHT22;9573;50.948;11.600;2022-11-27T16:04:15;7.70;99.90
18882;DHT22;9573;50.948;11.600;2022-11-27T16:06:42;7.70;99.90
18882;DHT22;9573;50.948;11.600;2022-11-27T16:09:09;7.60;99.90
18882;DHT22;9573;50.948;11.600;2022-11-27T16:11:36;7.60;99.90
18882;DHT22;9573;50.948;11.600;2022-11-27T16:14:03;7.60;99.90
18882;DHT22;9573;50.948;11.600;2022-11-27T16:16:31;7.50;99.90
18882;DHT22;9573;50.948;11.600;2022-11-27T16:19:02;7.50;99.90
18882;DHT22;9573;50.948;11.600;2022-11-27T16:21:31;7.50;99.90
18882;DHT22;9573;50.948;11.600;2022-11-27T16:24:00;7.40;99.90
18882;DHT22;9573;50.948;11.600;2022-11-27T16:26:29;7.40;99.90
18882;DHT22;9573;50.948;11.600;2022-11-27T16:28:57;7.30;99.90
18882;DHT22;9573;50.948;11.600;2022-11-27T16:31:25;7.30;99.90
18882;DHT22;9573;50.948;11.600;2022-11-27T16:33:52;7.20;99.90
18882;DHT22;9573;50.948;11.600;2022-11-27T16:36:21;7.20;99.90
18882;DHT22;9573;50.948;11.600;2022-11-27T16:38:50;7.20;99.90
18882;DHT22;9573;50.948;11.600;2022-11-27T16:41:19;7.20;99.90
18882;DHT22;9573;50.948;11.600;2022-11-27T16:43:48;7.10;99.90
18882;DHT22;9573;50.948;11.600;2022-11-27T16:46:17;7.20;99.90
18882;DHT22;9573;50.948;11.600;2022-11-27T16:48:46;7.20;99.90
18882;DHT22;9573;50.948;11.600;2022-11-27T16:51:16;7.20;99.90
18882;DHT22;9573;50.948;11.600;2022-11-27T16:53:46;7.20;99.90
18882;DHT22;9573;50.948;11.600;2022-11-27T16:56:16;7.20;99.90
18882;DHT22;9573;50.948;11.600;2022-11-27T16:58:46;7.20;99.90
18882;DHT22;9573;50.948;11.600;2022-11-27T17:01:16;7.20;99.90
18882;DHT22;9573;50.948;11.600;2022-11-27T17:03:51;7.20;99.90
18882;DHT22;9573;50.948;11.600;2022-11-27T17:06:19;7.20;99.90
18882;DHT22;9573;50.948;11.600;2022-11-27T17:08:49;7.20;99.90
18882;DHT22;9573;50.948;11.600;2022-11-27T17:11:18;7.10;99.90
18882;DHT22;9573;50.948;11.600;2022-11-27T17:13:47;7.10;99.90
18882;DHT22;9573;50.948;11.600;2022-11-27T17:16:15;7.00;99.90
18882;DHT22;9573;50.948;11.600;2022-11-27T17:18:43;7.00;99.90
18882;DHT22;9573;50.948;11.600;2022-11-27T17:21:13;7.00;99.90
18882;DHT22;9573;50.948;11.600;2022-11-27T17:23:46;6.90;99.90
18882;DHT22;9573;50.948;11.600;2022-11-27T17:26:16;6.90;99.90
18882;DHT22;9573;50.948;11.600;2022-11-27T17:28:45;6.90;99.90
18882;DHT22;9573;50.948;11.600;2022-11-27T17:31:15;6.90;99.90
18882;DHT22;9573;50.948;11.600;2022-11-27T17:33:43;6.90;99.90
18882;DHT22;9573;50.948;11.600;2022-11-27T17:36:11;6.80;99.90
18882;DHT22;9573;50.948;11.600;2022-11-27T17:38:39;6.80;99.90
18882;DHT22;9573;50.948;11.600;2022-11-27T17:41:08;6.80;99.90
18882;DHT22;9573;50.948;11.600;2022-11-27T17:43:38;6.80;99.90
18882;DHT22;9573;50.948;11.600;2022-11-27T17:46:06;6.70;99.90
18882;DHT22;9573;50.948;11.600;2022-11-27T17:48:34;6.70;99.90
18882;DHT22;9573;50.948;11.600;2022-11-27T17:51:02;6.70;99.90
18882;DHT22;9573;50.948;11.600;2022-11-27T17:53:30;6.60;99.90
18882;DHT22;9573;50.948;11.600;2022-11-27T17:56:01;6.60;99.90
18882;DHT22;9573;50.948;11.600;2022-11-27T17:58:29;6.60;99.90
18882;DHT22;9573;50.948;11.600;2022-11-27T18:01:00;6.60;99.90
18882;DHT22;9573;50.948;11.600;2022-11-27T18:03:28;6.60;99.90
18882;DHT22;9573;50.948;11.600;2022-11-27T18:05:56;6.60;99.90
18882;DHT22;9573;50.948;11.600;2022-11-27T18:08:28;6.60;99.90
18882;DHT22;9573;50.948;11.600;2022-11-27T18:10:55;6.60;99.90
18882;DHT22;9573;50.948;11.600;2022-11-27T18:13:22;6.60;99.90
18882;DHT22;9573;50.948;11.600;2022-11-27T18:16:02;6.60;99.90
18882;DHT22;9573;50.948;11.600;2022-11-27T18:18:31;6.60;99.90
18882;DHT22;9573;50.948;11.600;2022-11-27T18:21:03;6.50;99.90
18882;DHT22;9573;50.948;11.600;2022-11-27T18:23:32;6.60;99.90
18882;DHT22;9573;50.948;11.600;2022-11-27T18:25:59;6.50;99.90
18882;DHT22;9573;50.948;11.600;2022-11-27T18:28:27;6.50;99.90
18882;DHT22;9573;50.948;11.600;2022-11-27T18:30:54;6.60;99.90
18882;DHT22;9573;50.948;11.600;2022-11-27T18:33:23;6.50;99.90
18882;DHT22;9573;50.948;11.600;2022-11-27T18:35:51;6.60;99.90
18882;DHT22;9573;50.948;11.600;2022-11-27T18:38:19;5.50;99.90
18882;DHT22;9573;50.948;11.600;2022-11-27T18:40:46;6.50;99.90
18882;DHT22;9573;50.948;11.600;2022-11-27T18:43:16;6.50;99.90
18882;DHT22;9573;50.948;11.600;2022-11-27T18:45:43;6.50;99.90
18882;DHT22;9573;50.948;11.600;2022-11-27T18:48:11;6.50;99.90
18882;DHT22;9573;50.948;11.600;2022-11-27T18:50:39;6.40;99.90
18882;DHT22;9573;50.948;11.600;2022-11-27T18:53:10;6.40;99.90
18882;DHT22;9573;50.948;11.600;2022-11-27T18:55:37;6.40;99.90
18882;DHT22;9573;50.948;11.600;2022-11-27T18:58:05;6.40;99.90
18882;DHT22;9573;50.948;11.600;2022-11-27T19:00:32;6.40;99.90
18882;DHT22;9573;50.948;11.600;2022-11-27T19:03:02;6.60;99.90
18882;DHT22;9573;50.948;11.600;2022-11-27T19:05:30;6.40;99.90
18882;DHT22;9573;50.948;11.600;2022-11-27T19:07:59;6.40;99.90
18882;DHT22;9573;50.948;11.600;2022-11-27T19:10:32;6.40;99.90
18882;DHT22;9573;50.948;11.600;2022-11-27T19:13:00;6.40;99.90
18882;DHT22;9573;50.948;11.600;2022-11-27T19:15:27;6.40;99.90
18882;DHT22;9573;50.948;11.600;2022-11-27T19:17:54;6.40;99.90
18882;DHT22;9573;50.948;11.600;2022-11-27T19:20:22;6.40;99.90
18882;DHT22;9573;50.948;11.600;2022-11-27T19:22:54;6.40;99.90
18882;DHT22;9573;50.948;11.600;2022-11-27T19:25:23;6.40;99.90
18882;DHT22;9573;50.948;11.600;2022-11-27T19:27:50;6.40;99.90
18882;DHT22;9573;50.948;11.600;2022-11-27T19:30:18;6.30;99.90
18882;DHT22;9573;50.948;11.600;2022-11-27T19:32:45;6.30;99.90
18882;DHT22;9573;50.948;11.600;2022-11-27T19:35:12;6.30;99.90
18882;DHT22;9573;50.948;11.600;2022-11-27T19:37:40;6.30;99.90
18882;DHT22;9573;50.948;11.600;2022-11-27T19:40:08;6.10;99.90
18882;DHT22;9573;50.948;11.600;2022-11-27T19:42:38;6.30;99.90
18882;DHT22;9573;50.948;11.600;2022-11-27T19:45:06;6.30;99.90
18882;DHT22;9573;50.948;11.600;2022-11-27T19:47:33;6.30;99.90
18882;DHT22;9573;50.948;11.600;2022-11-27T19:50:00;6.30;99.90
18882;DHT22;9573;50.948;11.600;2022-11-27T19:52:30;6.20;99.90
18882;DHT22;9573;50.948;11.600;2022-11-27T19:54:58;6.20;99.90
18882;DHT22;9573;50.948;11.600;2022-11-27T19:57:25;6.10;99.90
18882;DHT22;9573;50.948;11.600;2022-11-27T19:59:54;6.10;99.90
18882;DHT22;9573;50.948;11.600;2022-11-27T20:02:21;6.10;99.90
18882;DHT22;9573;50.948;11.600;2022-11-27T20:04:50;6.10;99.90
18882;DHT22;9573;50.948;11.600;2022-11-27T20:07:17;6.10;99.90
18882;DHT22;9573;50.948;11.600;2022-11-27T20:09:45;6.00;99.90
18882;DHT22;9573;50.948;11.600;2022-11-27T20:12:12;6.00;99.90
18882;DHT22;9573;50.948;11.600;2022-11-27T20:14:40;6.00;99.90
18882;DHT22;9573;50.948;11.600;2022-11-27T20:17:09;6.00;99.90
18882;DHT22;9573;50.948;11.600;2022-11-27T20:19:36;6.00;99.90
18882;DHT22;9573;50.948;11.600;2022-11-27T20:22:04;6.00;99.90
18882;DHT22;9573;50.948;11.600;2022-11-27T20:24:31;5.90;99.90
18882;DHT22;9573;50.948;11.600;2022-11-27T20:26:58;6.00;99.90
18882;DHT22;9573;50.948;11.600;2022-11-27T20:29:25;5.90;99.90
18882;DHT22;9573;50.948;11.600;2022-11-27T20:31:52;7.00;99.90
18882;DHT22;9573;50.948;11.600;2022-11-27T20:34:21;5.90;99.90
18882;DHT22;9573;50.948;11.600;2022-11-27T20:36:48;5.90;99.90
18882;DHT22;9573;50.948;11.600;2022-11-27T20:39:16;5.90;99.90
18882;DHT22;9573;50.948;11.600;2022-11-27T20:41:44;6.00;99.90
18882;DHT22;9573;50.948;11.600;2022-11-27T20:44:12;5.90;99.90
18882;DHT22;9573;50.948;11.600;2022-11-27T20:46:40;5.90;99.90
18882;DHT22;9573;50.948;11.600;2022-11-27T20:49:07;5.90;99.90
18882;DHT22;9573;50.948;11.600;2022-11-27T20:51:36;5.90;99.90
18882;DHT22;9573;50.948;11.600;2022-11-27T20:54:03;5.90;99.90
18882;DHT22;9573;50.948;11.600;2022-11-27T20:56:30;5.90;99.90
18882;DHT22;9573;50.948;11.600;2022-11-27T20:58:58;6.00;99.90
